Drachten Airfield

EHDR · Friesland, 荷兰

罗盘
风向 的 风向 的 风向 到 风向 320° Drachten Airfield 7/25
风: 9 kt, 3 beaufort

4 kt

8 kt
改变
0 1.000 2.000 3.000 4.000 5.000
SCT 2.300 ft
BKN 2.700 ft
OVC 3.100 ft
METAR EHLW 071225Z AUTO 32009KT 280V350 9999 SCT023 BKN027 OVC031 05/03 Q1014 WHT TEMPO 35016G30KT SCT020CB

METAR Drachten Airfield - EHDR

Drachten Airfield是,荷兰中的小机场。 该机场有一条跑道: 7/25. 该领域的国际民航组织标志是EHDR.

这份报告是针对2022年12月7日 13:25, 当地时间在Leeuwarden Air Base进行的。

机场观察

风向为320°,速度为9 kt。 风向在280°和350°之间变化。

可见度为10 km 或者更多。

有疏云,零星散落的云朵在2.300 ft的高度, 碎云在2.700 ft的高度 和 乌云密布在3.100 ft的高度。 破损或更高的上限为2.700 ft。

温度为5 °C,阵风为0 °C。 露点为3 °C,相对湿度为87%。 海平面上的气压为1014 hPa (QNH)。

发展趋势

  • 暂时的

    风来自350°方向,速度为16 kt。 预计30 kt阵风。 疏云,零星散落的云朵 积雨云在2.000 ft的高度.

白天

今天,太阳从08:34升起,在16:19降落。 这适用于Drachten Airfield,世界夏令时可能有所不同。 当地时间与世界标准时间之间的时差为+1 小时。 当前,没有夏令时有效。

公司介绍

我们没有关于这个机场的公司信息。

体会

到Vliegles.nl去找飞行课程,跳伞和其他飞行体验。 浏览页面,了解Drachten Airfield附近所有可用的活动。 你也可以使用搜索功能来寻找你所在地附近的特定飞行课程、跳伞或其他飞行体验。

跑道

Id 标题 侧风 逆风 侧风 %
7/25 074°-254° 8 kt 4 kt 91 %

逆风成分最大的方向会被突出显示,并用于横风计算。 这并不一定意味着这个方向在使用。

乌云

2.300 ft SCT 疏云,零星散落的云朵
2.700 ft BKN 碎云
3.100 ft OVC 乌云密布
2.000 ft SCT 暂时的 疏云,零星散落的云朵 积雨云

温度 & 天气

温度 5 °C
露点 3 °C
相对湿度 87%
风寒 0 °C
Kp-index 4 (0-9)

白天

日出
08:36
中午
12:28
日落
16:20 (2:47)

小工具

你想在你的网站上有一个关于Drachten Airfield的当前航空天气(METAR)的小部件吗?

显示HTML代码

我们和第三方通过cookies跟踪您在我们网站上的互联网行为。如果你继续,我们认为你同意我们的饼干政策